Terminal Aerodrome Forecast
Issued by NWS

Home | Current Version | Previous Version | Text Only | Print | Product List | Glossary On
Versions: 1 2 3 4 5 6 7 8 9 10 11 12 13 14 15 16 17 18 19 20 21 22 23 24 25 26 27 28 29 30 31 32 33 34 35 36 37 38 39 40 41 42 43
000
FTUS46 KEKA 211100 RRA
TAFACV
TAF
KACV 211144Z 2112/2212 VRB03KT 6SM BR SCT015
     FM211500 15005KT 5SM BR SCT025 BKN100
     FM211800 24006KT P6SM BKN040 OVC060
     FM212300 22007KT 5SM -RA BR OVC025
     FM220600 16005KT 6SM -RA BR OVC015=

USA.gov is the U.S. government's official web portal to all federal, state and local government web resources and services.